createdAt,value
2019-04-30T00:00:21.460Z,6.10
2019-04-30T00:03:11.574Z,6.10
2019-04-30T00:06:00.177Z,6.10
2019-04-30T00:08:48.789Z,6.20
2019-04-30T00:11:37.149Z,6.40
2019-04-30T00:14:32.189Z,6.40
2019-04-30T00:16:57.955Z,6.50
2019-04-30T00:19:28.693Z,6.60
2019-04-30T00:22:00.619Z,6.60
2019-04-30T00:24:31.527Z,6.60
2019-04-30T00:27:02.313Z,6.60
2019-04-30T00:29:32.986Z,6.70
2019-04-30T00:32:05.008Z,6.80
2019-04-30T00:34:39.364Z,6.90
2019-04-30T00:37:14.049Z,6.90
2019-04-30T00:39:44.357Z,7.00
2019-04-30T00:42:17.233Z,7.10
2019-04-30T00:44:46.521Z,7.10
2019-04-30T00:47:17.064Z,7.20
2019-04-30T00:49:52.099Z,7.10
2019-04-30T00:52:20.123Z,7.20
2019-04-30T00:54:50.830Z,7.30
2019-04-30T00:57:21.583Z,7.30
2019-04-30T00:59:52.108Z,7.30
2019-04-30T01:02:32.318Z,7.30
2019-04-30T01:05:07.918Z,7.40
2019-04-30T01:07:39.660Z,7.50
2019-04-30T01:10:09.328Z,7.50
2019-04-30T01:12:46.911Z,7.50
2019-04-30T01:15:14.502Z,7.70
2019-04-30T01:17:45.384Z,7.90
2019-04-30T01:20:19.234Z,8.00
2019-04-30T01:22:49.341Z,8.00
2019-04-30T01:25:20.768Z,8.00
2019-04-30T01:27:51.626Z,8.00
2019-04-30T01:30:22.855Z,8.00
2019-04-30T01:32:56.574Z,8.20
2019-04-30T01:35:29.038Z,8.20
2019-04-30T01:37:59.625Z,8.30
2019-04-30T01:40:30.743Z,8.20
2019-04-30T01:43:02.462Z,8.20
2019-04-30T01:45:33.306Z,8.30
2019-04-30T01:48:08.844Z,8.40
2019-04-30T01:50:41.939Z,8.40
2019-04-30T01:53:13.103Z,8.30
2019-04-30T01:56:00.769Z,8.20
2019-04-30T01:58:33.476Z,8.20
2019-04-30T02:01:18.997Z,8.10
2019-04-30T02:03:49.894Z,8.10
2019-04-30T02:06:20.477Z,8.00
2019-04-30T02:08:51.076Z,7.90
2019-04-30T02:11:21.912Z,7.90
2019-04-30T02:13:52.503Z,7.90
2019-04-30T02:16:23.199Z,7.90
2019-04-30T02:18:53.930Z,7.90
2019-04-30T02:21:24.500Z,8.00
2019-04-30T02:23:54.937Z,7.90
2019-04-30T02:26:25.529Z,7.90
2019-04-30T02:28:56.372Z,7.90
2019-04-30T02:31:27.176Z,7.90
2019-04-30T02:34:05.275Z,8.00
2019-04-30T02:36:41.738Z,8.10
2019-04-30T02:39:12.468Z,8.20
2019-04-30T02:41:43.332Z,8.30
2019-04-30T02:44:13.931Z,8.30
2019-04-30T02:46:44.890Z,8.40
2019-04-30T02:49:15.801Z,8.40
2019-04-30T02:51:46.625Z,8.30
2019-04-30T02:54:24.097Z,8.20
2019-04-30T02:56:55.981Z,8.20
2019-04-30T02:59:26.638Z,8.20
2019-04-30T03:01:59.781Z,8.20
2019-04-30T03:04:29.627Z,8.20
2019-04-30T03:07:00.885Z,8.30
2019-04-30T03:09:33.658Z,8.40
2019-04-30T03:12:04.398Z,8.40
2019-04-30T03:14:35.178Z,8.50
2019-04-30T03:17:09.949Z,8.50
2019-04-30T03:19:41.046Z,8.50
2019-04-30T03:22:13.375Z,8.50
2019-04-30T03:24:43.819Z,8.50
2019-04-30T03:27:14.442Z,8.40
2019-04-30T03:29:45.096Z,8.40
2019-04-30T03:32:15.823Z,8.30
2019-04-30T03:34:51.129Z,8.30
2019-04-30T03:37:19.855Z,8.30
2019-04-30T03:39:51.955Z,8.30
2019-04-30T03:42:22.677Z,8.30
2019-04-30T03:44:53.570Z,8.20
2019-04-30T03:47:24.353Z,8.20
2019-04-30T03:49:55.114Z,8.10
2019-04-30T03:52:25.984Z,8.10
2019-04-30T03:54:59.655Z,8.10
2019-04-30T03:57:30.286Z,8.10
2019-04-30T04:00:01.028Z,8.20
2019-04-30T04:02:33.246Z,8.20
2019-04-30T04:05:24.245Z,8.20
2019-04-30T04:08:05.652Z,8.20
2019-04-30T04:10:44.230Z,8.10
2019-04-30T04:13:15.144Z,8.10
2019-04-30T04:15:45.829Z,8.10
2019-04-30T04:18:16.796Z,8.10
2019-04-30T04:20:50.458Z,8.10
2019-04-30T04:23:20.167Z,8.10
2019-04-30T04:25:50.885Z,8.10
2019-04-30T04:28:21.709Z,8.20
2019-04-30T04:30:52.729Z,8.20
2019-04-30T04:33:23.719Z,8.20
2019-04-30T04:35:54.571Z,8.20
2019-04-30T04:38:30.187Z,8.20
2019-04-30T04:41:03.080Z,8.20
2019-04-30T04:43:32.629Z,8.20
2019-04-30T04:46:03.261Z,8.20
2019-04-30T04:48:34.936Z,8.30
2019-04-30T04:51:05.731Z,8.20
2019-04-30T04:53:36.541Z,8.20
2019-04-30T04:56:07.144Z,8.20
2019-04-30T04:58:39.979Z,8.20
2019-04-30T05:01:11.776Z,8.20
2019-04-30T05:03:42.134Z,8.20
2019-04-30T05:06:12.702Z,8.20
2019-04-30T05:08:43.335Z,8.10
2019-04-30T05:11:14.453Z,8.20
2019-04-30T05:13:45.066Z,8.20
2019-04-30T05:16:15.729Z,8.20
2019-04-30T05:18:46.430Z,8.30
2019-04-30T05:21:18.662Z,8.30
2019-04-30T05:23:49.392Z,8.40
2019-04-30T05:26:22.826Z,8.40
2019-04-30T05:28:53.400Z,8.50
2019-04-30T05:31:25.949Z,8.50
2019-04-30T05:33:56.311Z,8.50
2019-04-30T05:36:29.061Z,8.60
2019-04-30T05:38:59.473Z,8.80
2019-04-30T05:41:30.438Z,9.00
2019-04-30T05:44:01.044Z,9.10
2019-04-30T05:46:31.892Z,9.20
2019-04-30T05:49:02.785Z,9.20
2019-04-30T05:51:33.731Z,9.30
2019-04-30T05:54:04.360Z,9.40
2019-04-30T05:56:35.069Z,9.40
2019-04-30T05:59:06.188Z,9.40
2019-04-30T06:01:36.926Z,9.30
2019-04-30T06:04:09.402Z,9.20
2019-04-30T06:06:40.032Z,9.20
2019-04-30T06:09:28.590Z,9.20
2019-04-30T06:12:09.445Z,9.30
2019-04-30T06:14:48.419Z,9.50
2019-04-30T06:17:14.123Z,9.70
2019-04-30T06:19:44.741Z,9.70
2019-04-30T06:22:15.374Z,9.90
2019-04-30T06:24:46.136Z,10.10
2019-04-30T06:27:16.575Z,10.30
2019-04-30T06:29:48.970Z,10.50
2019-04-30T06:32:19.840Z,10.70
2019-04-30T06:34:50.532Z,10.80
2019-04-30T06:37:21.281Z,11.10
2019-04-30T06:39:51.906Z,11.40
2019-04-30T06:42:22.625Z,11.50
2019-04-30T06:44:53.337Z,11.70
2019-04-30T06:47:32.706Z,11.70
2019-04-30T06:49:56.355Z,11.70
2019-04-30T06:52:27.037Z,11.80
2019-04-30T06:54:59.564Z,11.90
2019-04-30T06:57:30.202Z,11.90
2019-04-30T07:00:00.776Z,12.10
2019-04-30T07:02:31.390Z,12.00
2019-04-30T07:05:02.051Z,12.00
2019-04-30T07:07:38.985Z,12.10
2019-04-30T07:10:10.166Z,12.10
2019-04-30T07:12:44.137Z,12.20
2019-04-30T07:15:14.854Z,12.20
2019-04-30T07:17:45.482Z,12.30
2019-04-30T07:20:16.072Z,12.40
2019-04-30T07:22:52.442Z,12.50
2019-04-30T07:25:19.544Z,12.50
2019-04-30T07:27:50.714Z,12.60
2019-04-30T07:30:21.561Z,12.60
2019-04-30T07:32:52.305Z,12.90
2019-04-30T07:35:23.185Z,13.00
2019-04-30T07:37:54.473Z,12.80
2019-04-30T07:40:25.921Z,12.80
2019-04-30T07:42:58.930Z,12.80
2019-04-30T07:45:29.480Z,13.00
2019-04-30T07:48:00.887Z,13.20
2019-04-30T07:50:32.331Z,13.10
2019-04-30T07:53:06.457Z,13.20
2019-04-30T07:55:36.334Z,13.40
2019-04-30T07:58:08.946Z,13.50
2019-04-30T08:00:40.241Z,13.40
2019-04-30T08:03:13.014Z,13.50
2019-04-30T08:05:45.505Z,13.50
2019-04-30T08:08:22.400Z,13.50
2019-04-30T08:10:50.785Z,13.70
2019-04-30T08:13:21.827Z,13.80
2019-04-30T08:15:53.097Z,13.80
2019-04-30T08:18:23.975Z,13.80
2019-04-30T08:20:54.578Z,13.70
2019-04-30T08:23:34.826Z,14.10
2019-04-30T08:25:58.766Z,14.10
2019-04-30T08:28:30.420Z,14.10
2019-04-30T08:31:01.262Z,14.00
2019-04-30T08:33:31.849Z,13.90
2019-04-30T08:36:02.532Z,14.00
2019-04-30T08:38:33.121Z,14.20
2019-04-30T08:41:03.831Z,14.20
2019-04-30T08:43:34.655Z,14.00
2019-04-30T08:46:05.148Z,13.90
2019-04-30T08:48:46.148Z,13.70
2019-04-30T08:51:10.694Z,13.80
2019-04-30T08:53:41.425Z,13.90
2019-04-30T08:56:12.268Z,13.90
2019-04-30T08:58:42.937Z,13.80
2019-04-30T09:01:13.987Z,14.00
2019-04-30T09:03:44.559Z,14.00
2019-04-30T09:06:16.804Z,14.00
2019-04-30T09:08:48.991Z,13.90
2019-04-30T09:11:27.279Z,13.90
2019-04-30T09:13:52.491Z,14.10
2019-04-30T09:16:23.469Z,14.30
2019-04-30T09:18:55.614Z,14.60
2019-04-30T09:21:26.260Z,14.90
2019-04-30T09:23:56.956Z,14.80
2019-04-30T09:26:29.064Z,14.50
2019-04-30T09:28:59.835Z,14.50
2019-04-30T09:31:31.456Z,14.20
2019-04-30T09:34:14.004Z,14.30
2019-04-30T09:36:34.401Z,14.30
2019-04-30T09:39:08.779Z,14.40
2019-04-30T09:41:40.966Z,14.60
2019-04-30T09:44:10.885Z,14.80
2019-04-30T09:46:41.463Z,14.80
2019-04-30T09:49:12.142Z,14.60
2019-04-30T09:51:43.130Z,14.50
2019-04-30T09:54:14.206Z,14.50
2019-04-30T09:56:45.410Z,14.70
2019-04-30T09:59:16.243Z,14.60
2019-04-30T10:01:46.921Z,14.50
2019-04-30T10:04:19.791Z,14.20
2019-04-30T10:06:50.269Z,14.00
2019-04-30T10:09:21.176Z,13.60
2019-04-30T10:11:56.039Z,13.50
2019-04-30T10:14:27.057Z,13.40
2019-04-30T10:16:59.577Z,13.40
2019-04-30T10:19:31.746Z,13.40
2019-04-30T10:22:02.673Z,13.30
2019-04-30T10:24:33.993Z,13.00
2019-04-30T10:27:07.183Z,13.00
2019-04-30T10:29:39.482Z,12.90
2019-04-30T10:32:10.746Z,13.20
2019-04-30T10:34:41.401Z,13.90
2019-04-30T10:37:12.358Z,14.00
2019-04-30T10:39:46.124Z,14.20
2019-04-30T10:42:16.704Z,14.20
2019-04-30T10:44:47.527Z,14.80
2019-04-30T10:47:19.271Z,15.30
2019-04-30T10:49:50.301Z,15.30
2019-04-30T10:52:20.875Z,16.00
2019-04-30T10:54:51.393Z,16.60
2019-04-30T10:57:22.096Z,16.40
2019-04-30T10:59:52.966Z,16.30
2019-04-30T11:02:23.794Z,16.50
2019-04-30T11:04:54.337Z,16.50
2019-04-30T11:07:25.007Z,15.90
2019-04-30T11:09:55.407Z,16.50
2019-04-30T11:12:26.358Z,16.50
2019-04-30T11:14:57.010Z,17.30
2019-04-30T11:17:29.597Z,17.80
2019-04-30T11:20:00.245Z,18.10
2019-04-30T11:22:31.191Z,18.00
2019-04-30T11:25:02.904Z,18.00
2019-04-30T11:27:34.351Z,17.90
2019-04-30T11:30:18.545Z,18.10
2019-04-30T11:32:39.742Z,18.60
2019-04-30T11:35:10.431Z,18.50
2019-04-30T11:37:41.234Z,18.10
2019-04-30T11:40:11.984Z,18.00
2019-04-30T11:42:43.821Z,17.60
2019-04-30T11:45:19.355Z,17.10
2019-04-30T11:47:53.579Z,16.50
2019-04-30T11:50:23.239Z,16.60
2019-04-30T11:53:07.046Z,17.30
2019-04-30T11:55:25.946Z,17.40
2019-04-30T11:57:56.595Z,17.60
2019-04-30T12:00:29.683Z,18.10
2019-04-30T12:03:00.332Z,18.30
2019-04-30T12:05:31.171Z,16.80
2019-04-30T12:08:03.301Z,16.90
2019-04-30T12:10:35.394Z,18.00
2019-04-30T12:13:07.507Z,18.10
2019-04-30T12:15:38.055Z,18.10
2019-04-30T12:18:08.611Z,18.50
2019-04-30T12:20:39.291Z,18.10
2019-04-30T12:23:11.756Z,18.40
2019-04-30T12:25:41.925Z,17.80
2019-04-30T12:28:12.425Z,17.90
2019-04-30T12:30:43.298Z,17.50
2019-04-30T12:33:14.081Z,17.40
2019-04-30T12:35:44.668Z,18.40
2019-04-30T12:38:15.321Z,18.60
2019-04-30T12:40:45.917Z,18.40
2019-04-30T12:43:16.528Z,18.00
2019-04-30T12:45:47.027Z,17.70
2019-04-30T12:48:22.352Z,17.80
2019-04-30T12:51:06.707Z,18.30
2019-04-30T12:53:50.850Z,18.20
2019-04-30T12:56:32.126Z,17.00
2019-04-30T12:59:02.753Z,17.30
2019-04-30T13:01:34.567Z,17.80
2019-04-30T13:04:19.266Z,17.90
2019-04-30T13:06:49.886Z,17.50
2019-04-30T13:09:22.069Z,17.60
2019-04-30T13:11:53.538Z,18.30
2019-04-30T13:14:26.280Z,17.80
2019-04-30T13:16:56.675Z,17.80
2019-04-30T13:19:27.635Z,18.30
2019-04-30T13:21:58.715Z,19.20
2019-04-30T13:24:31.549Z,18.50
2019-04-30T13:27:02.189Z,18.20
2019-04-30T13:29:36.940Z,17.80
2019-04-30T13:32:08.638Z,17.80
2019-04-30T13:34:46.828Z,18.00
2019-04-30T13:37:19.098Z,17.50
2019-04-30T13:39:54.524Z,17.40
2019-04-30T13:42:32.392Z,17.40
2019-04-30T13:45:05.812Z,17.70
2019-04-30T13:47:36.479Z,17.60
2019-04-30T13:50:09.332Z,16.90
2019-04-30T13:52:40.094Z,16.60
2019-04-30T13:55:10.998Z,16.50
2019-04-30T13:57:41.958Z,16.40
2019-04-30T14:00:13.939Z,16.70
2019-04-30T14:02:48.872Z,16.60
2019-04-30T14:05:19.476Z,17.00
2019-04-30T14:07:59.711Z,16.90
2019-04-30T14:10:31.663Z,16.90
2019-04-30T14:13:03.883Z,17.00
2019-04-30T14:15:34.526Z,16.80
2019-04-30T14:18:05.290Z,16.60
2019-04-30T14:20:35.779Z,16.60
2019-04-30T14:23:06.421Z,16.20
2019-04-30T14:25:36.970Z,15.90
2019-04-30T14:28:09.440Z,16.00
2019-04-30T14:30:40.110Z,16.20
2019-04-30T14:33:23.009Z,16.20
2019-04-30T14:35:43.051Z,16.20
2019-04-30T14:38:13.768Z,16.10
2019-04-30T14:40:44.778Z,16.00
2019-04-30T14:43:19.540Z,15.90
2019-04-30T14:45:51.431Z,16.00
2019-04-30T14:48:27.350Z,16.00
2019-04-30T14:50:58.571Z,15.90
2019-04-30T14:53:31.171Z,15.80
2019-04-30T14:56:22.052Z,16.00
2019-04-30T14:59:10.779Z,16.10
2019-04-30T15:01:49.049Z,16.50
2019-04-30T15:04:21.531Z,16.70
2019-04-30T15:06:52.424Z,16.80
2019-04-30T15:09:24.119Z,16.80
2019-04-30T15:11:54.825Z,16.90
2019-04-30T15:14:25.483Z,16.90
2019-04-30T15:16:56.082Z,16.90
2019-04-30T15:19:26.664Z,16.50
2019-04-30T15:22:00.431Z,16.50
2019-04-30T15:24:30.820Z,16.60
2019-04-30T15:27:02.553Z,16.70
2019-04-30T15:29:33.312Z,16.60
2019-04-30T15:32:03.860Z,16.40
2019-04-30T15:34:34.702Z,16.50
2019-04-30T15:37:05.247Z,16.60
2019-04-30T15:39:39.377Z,16.50
2019-04-30T15:42:10.494Z,16.40
2019-04-30T15:44:45.193Z,16.30
2019-04-30T15:47:13.277Z,16.30
2019-04-30T15:49:44.035Z,16.10
2019-04-30T15:52:14.758Z,16.10
2019-04-30T15:54:45.503Z,16.10
2019-04-30T15:57:16.304Z,16.10
2019-04-30T15:59:47.023Z,16.00
2019-04-30T16:02:22.319Z,15.70
2019-04-30T16:05:09.922Z,15.40
2019-04-30T16:07:42.144Z,15.30
2019-04-30T16:10:14.315Z,15.30
2019-04-30T16:12:52.370Z,15.30
2019-04-30T16:15:23.292Z,15.40
2019-04-30T16:17:55.635Z,15.30
2019-04-30T16:20:26.307Z,15.30
2019-04-30T16:22:59.010Z,15.40
2019-04-30T16:25:30.320Z,15.60
2019-04-30T16:28:01.180Z,15.50
2019-04-30T16:30:31.882Z,15.50
2019-04-30T16:33:02.688Z,15.40
2019-04-30T16:35:33.576Z,15.40
2019-04-30T16:38:05.163Z,15.40
2019-04-30T16:40:38.635Z,15.20
2019-04-30T16:43:09.789Z,15.00
2019-04-30T16:45:40.651Z,15.10
2019-04-30T16:48:12.047Z,15.10
2019-04-30T16:50:43.285Z,15.00
2019-04-30T16:53:14.107Z,15.00
2019-04-30T16:55:44.918Z,14.90
2019-04-30T16:58:19.425Z,14.90
2019-04-30T17:00:49.341Z,14.80
2019-04-30T17:03:22.060Z,14.70
2019-04-30T17:06:03.314Z,14.70
2019-04-30T17:08:35.756Z,14.70
2019-04-30T17:11:08.230Z,14.60
2019-04-30T17:13:43.579Z,14.60
2019-04-30T17:16:15.860Z,14.50
2019-04-30T17:18:49.263Z,14.50
2019-04-30T17:21:19.685Z,14.50
2019-04-30T17:23:50.933Z,14.50
2019-04-30T17:26:22.143Z,14.30
2019-04-30T17:28:53.079Z,14.10
2019-04-30T17:31:23.893Z,14.00
2019-04-30T17:33:54.766Z,13.80
2019-04-30T17:36:25.775Z,13.80
2019-04-30T17:38:56.881Z,13.70
2019-04-30T17:41:28.621Z,13.60
2019-04-30T17:43:59.464Z,13.60
2019-04-30T17:46:30.088Z,13.40
2019-04-30T17:49:01.343Z,13.40
2019-04-30T17:51:32.226Z,13.40
2019-04-30T17:54:15.797Z,13.30
2019-04-30T17:56:46.757Z,13.20
2019-04-30T17:59:17.651Z,13.20
2019-04-30T18:01:52.781Z,13.10
2019-04-30T18:04:23.743Z,13.00
2019-04-30T18:06:54.810Z,12.90
2019-04-30T18:09:26.133Z,12.80
2019-04-30T18:11:56.785Z,12.80
2019-04-30T18:14:28.550Z,12.70
2019-04-30T18:16:59.633Z,12.60
2019-04-30T18:19:34.482Z,12.60
2019-04-30T18:22:09.965Z,12.50
2019-04-30T18:24:49.315Z,12.50
2019-04-30T18:27:21.974Z,12.40
2019-04-30T18:29:52.831Z,12.40
2019-04-30T18:32:25.249Z,12.30
2019-04-30T18:34:56.143Z,12.30
2019-04-30T18:37:28.635Z,12.30
2019-04-30T18:40:00.190Z,12.30
2019-04-30T18:42:31.839Z,12.20
2019-04-30T18:45:03.284Z,12.30
2019-04-30T18:47:35.685Z,12.20
2019-04-30T18:50:09.216Z,12.20
2019-04-30T18:52:40.692Z,12.20
2019-04-30T18:55:13.051Z,12.20
2019-04-30T18:57:56.066Z,12.10
2019-04-30T19:00:19.816Z,12.10
2019-04-30T19:02:50.752Z,12.00
2019-04-30T19:05:23.327Z,11.90
2019-04-30T19:07:55.980Z,11.80
2019-04-30T19:10:31.658Z,11.80
2019-04-30T19:13:20.923Z,11.70
2019-04-30T19:16:19.858Z,11.60
2019-04-30T19:18:43.836Z,11.50
2019-04-30T19:21:14.828Z,11.50
2019-04-30T19:23:45.749Z,11.60
2019-04-30T19:26:16.564Z,11.60
2019-04-30T19:28:49.306Z,11.60
2019-04-30T19:31:20.493Z,11.60
2019-04-30T19:33:52.162Z,11.60
2019-04-30T19:36:35.114Z,11.50
2019-04-30T19:38:56.685Z,11.40
2019-04-30T19:41:28.754Z,11.40
2019-04-30T19:44:00.415Z,11.30
2019-04-30T19:46:31.631Z,11.20
2019-04-30T19:49:02.770Z,11.20
2019-04-30T19:51:33.642Z,11.10
2019-04-30T19:54:04.878Z,11.00
2019-04-30T19:56:39.225Z,11.00
2019-04-30T19:59:08.734Z,11.00
2019-04-30T20:01:40.045Z,11.00
2019-04-30T20:04:11.212Z,10.90
2019-04-30T20:06:42.311Z,10.90
2019-04-30T20:09:13.223Z,10.90
2019-04-30T20:11:44.404Z,10.90
2019-04-30T20:14:15.795Z,10.90
2019-04-30T20:16:48.716Z,10.80
2019-04-30T20:19:19.858Z,10.80
2019-04-30T20:21:53.838Z,10.70
2019-04-30T20:24:23.234Z,10.60
2019-04-30T20:27:04.247Z,10.60
2019-04-30T20:29:28.683Z,10.60
2019-04-30T20:31:59.137Z,10.60
2019-04-30T20:34:31.904Z,10.60
2019-04-30T20:37:03.400Z,10.60
2019-04-30T20:39:36.113Z,10.60
2019-04-30T20:42:10.390Z,10.50
2019-04-30T20:44:41.500Z,10.40
2019-04-30T20:47:12.301Z,10.50
2019-04-30T20:49:43.236Z,10.40
2019-04-30T20:52:14.466Z,10.40
2019-04-30T20:54:45.638Z,10.40
2019-04-30T20:57:16.367Z,10.40
2019-04-30T20:59:48.733Z,10.40
2019-04-30T21:02:20.474Z,10.50
2019-04-30T21:04:51.580Z,10.50
2019-04-30T21:07:22.812Z,10.50
2019-04-30T21:09:53.880Z,10.50
2019-04-30T21:12:25.172Z,10.50
2019-04-30T21:14:56.168Z,10.50
2019-04-30T21:17:27.394Z,10.50
2019-04-30T21:20:01.054Z,10.60
2019-04-30T21:22:32.077Z,10.50
2019-04-30T21:25:03.041Z,10.40
2019-04-30T21:27:33.792Z,10.40
2019-04-30T21:30:05.417Z,10.40
2019-04-30T21:32:54.350Z,10.50
2019-04-30T21:35:26.811Z,10.50
2019-04-30T21:38:01.610Z,10.50
2019-04-30T21:40:31.622Z,10.50
2019-04-30T21:43:02.574Z,10.50
2019-04-30T21:45:33.407Z,10.50
2019-04-30T21:48:04.462Z,10.50
2019-04-30T21:50:35.178Z,10.50
2019-04-30T21:53:06.237Z,10.50
2019-04-30T21:55:37.102Z,10.40
2019-04-30T21:58:09.549Z,10.40
2019-04-30T22:00:41.849Z,10.30
2019-04-30T22:03:14.141Z,10.20
2019-04-30T22:05:44.798Z,10.10
2019-04-30T22:08:15.518Z,10.00
2019-04-30T22:10:46.181Z,10.00
2019-04-30T22:13:18.492Z,10.10
2019-04-30T22:15:49.788Z,10.10
2019-04-30T22:18:20.727Z,10.10
2019-04-30T22:20:52.073Z,10.00
2019-04-30T22:23:23.617Z,9.90
2019-04-30T22:25:54.431Z,10.00
2019-04-30T22:28:25.131Z,9.90
2019-04-30T22:30:55.850Z,9.80
2019-04-30T22:33:26.853Z,9.80
2019-04-30T22:36:10.642Z,9.80
2019-04-30T22:38:44.865Z,9.70
2019-04-30T22:41:19.372Z,9.70
2019-04-30T22:46:46.147Z,9.70
2019-04-30T22:49:18.323Z,9.60
2019-04-30T22:51:49.002Z,9.50
2019-04-30T22:54:19.647Z,9.50
2019-04-30T22:56:50.371Z,9.40
2019-04-30T22:59:21.017Z,9.50
2019-04-30T23:01:56.312Z,9.50
2019-04-30T23:04:40.484Z,9.40
2019-04-30T23:07:11.138Z,9.50
2019-04-30T23:09:41.926Z,9.40
2019-04-30T23:12:12.999Z,9.40
2019-04-30T23:14:43.716Z,9.30
2019-04-30T23:17:14.508Z,9.30
2019-04-30T23:19:49.399Z,9.30
2019-04-30T23:22:17.306Z,9.30
2019-04-30T23:24:47.893Z,9.20
2019-04-30T23:27:18.539Z,9.10
2019-04-30T23:29:49.202Z,9.10
2019-04-30T23:32:20.071Z,9.10
2019-04-30T23:34:50.839Z,9.00
2019-04-30T23:37:21.573Z,9.00
2019-04-30T23:39:52.466Z,9.00
2019-04-30T23:42:23.254Z,9.00
2019-04-30T23:44:53.747Z,9.10
2019-04-30T23:47:24.321Z,9.00
2019-04-30T23:49:54.988Z,9.00
2019-04-30T23:52:25.613Z,9.00
2019-04-30T23:54:56.485Z,9.00
2019-04-30T23:57:27.166Z,9.00
2019-04-30T23:59:58.854Z,9.00
